aviador You're here:

KMHL Decoded Metar

in
Report Time2017-11-19 19:35:00
UTC Time2017-11-19 19:48:47
Flight Rules vfr VFR
WindCalm
Visibility9999 m
Phenomena:N/A
Clouds:N/A
Expected CloudBase > 4,400 ft AGL from Temp-Dew spread
CeilingNone
Temp08°C
Dew Point-3°C (46% RH)
AAT5.6°C
QNH1023 hPa
Raw Report
KMHL 191935Z AUTO 00000KT 10SM CLR 08/M03 A3021 RMK AO2=

Extra information for KMHL:More info

Social comments